Redwood City, CA (94065)

5:40 AM PDT on August 29, 2015 (GMT -0700)
Neighborhood 4 | | Change Station
CLOSE
Current Station
Personal Weather Station
Location: Foster City, CA
Elevation: 7 ft
Nearby Weather Stations

Elev 7 ft 37.55 °N, 122.26 °W | Updated 25 seconds ago

Overcast
Overcast
66.6 °F
Feels Like 66.6 °F
N
0.0
Wind Variable Wind from WSW
Gusts 0.0 mph

Today
High -- | Low -- °F
--% Chance of Precip.
Yesterday
High -- | Low -- °F
Precip. -- in
6:36 AM 7:42 PM
Full, 100% visible
Pressure 29.96 in
Visibility 10.0 miles
Clouds Overcast 2100 ft
Dew Point 63 °F
Humidity 87%
Rainfall 0.00 in
Snow Depth Not available.
UV 0.0 out of 12
Pollen 6.20 out of 12
Air Quality Not available.
Flu Activity Not available.
METAR KSQL 291235Z AUTO 31003KT 10SM OVC021 20/17 A2996 RMK AO2
Pressure 29.96 in
Visibility 10.0 miles
Clouds Overcast 2100 ft
Dew Point 63 °F
Humidity 87%
Rainfall 0.00 in
Snow Depth Not available.
UV 0.0 out of 12
Pollen 6.20 out of 12
Air Quality Not available.
Flu Activity Not available.
METAR KSQL 291235Z AUTO 31003KT 10SM OVC021 20/17 A2996 RMK AO2

10-Day Weather Forecast

×

Almanac

Astronomy

Aug. 29, 2015 Rise Set
Actual Time
Civil Twilight
Nautical Twilight
Astronomical Twilight
Moon
Length of Visible Light
Length of Day
Tomorrow will be .
, % of the Moon is Illuminated

Today's Extremes

State Highs State Lows

Community

WunderPhotos

Upload Photos

1,850,677 photos uploaded!

WunderBlogs® & News

Nearby

Air Quality

  Air Quality AQ Index Pollutant
Not available.

Snow Depth

Station Depth Elevation

Earthquake Activity

City Distance Mag. Time & Date
Minimum magnitude displayed is 2.5.

Coastal Water Temperatures

Place Temperature

Stations

Nearby Weather Stations

Station Location Temp. Windchill Dew Point Humidity Wind Precip. Elev Updated Type